Time;durP1;ratioP1;P1;durP2;ratioP2;P2;SDS_P1;SDS_P2;PMS_P1;PMS_P2;Temp;Humidity;BMP_temperature;BMP_pressure;BME280_temperature;BME280_humidity;BME280_pressure;Samples;Min_cycle;Max_cycle;Signal;HPM_P1;HPM_P2
2023/01/09 00:00:53;;;;;;;13.07;7.67;;;;;;;5.12;100.00;99309.44;4934502;29;20044;-80
2023/01/09 00:03:20;;;;;;;13.23;8.57;;;;;;;5.00;100.00;99310.56;4910228;29;20083;-81
2023/01/09 00:05:46;;;;;;;12.10;7.87;;;;;;;5.02;100.00;99314.84;4916837;29;20040;-80
2023/01/09 00:08:13;;;;;;;13.53;7.40;;;;;;;4.90;100.00;99315.09;4925578;29;20047;-81
2023/01/09 00:10:40;;;;;;;14.23;8.17;;;;;;;4.91;100.00;99303.75;4937966;29;20048;-81
2023/01/09 00:13:10;;;;;;;14.30;8.37;;;;;;;4.82;100.00;99295.22;4912480;29;20568;-80
2023/01/09 00:15:37;;;;;;;15.03;7.77;;;;;;;4.71;100.00;99284.97;4944054;29;20040;-81
2023/01/09 00:18:05;;;;;;;12.17;7.47;;;;;;;4.60;100.00;99292.13;4924762;29;20039;-80
2023/01/09 00:20:32;;;;;;;13.63;8.20;;;;;;;4.58;100.00;99297.38;4922487;29;20036;-81
2023/01/09 00:22:58;;;;;;;12.50;7.53;;;;;;;4.48;100.00;99290.59;4912699;29;20464;-81
2023/01/09 00:25:25;;;;;;;15.97;9.27;;;;;;;4.37;100.00;99288.19;4908489;29;20047;-81
2023/01/09 00:27:52;;;;;;;14.50;8.67;;;;;;;4.39;100.00;99273.31;4919272;29;20044;-81
2023/01/09 00:30:19;;;;;;;10.90;7.17;;;;;;;4.42;100.00;99281.09;4922917;29;20416;-81
2023/01/09 00:32:46;;;;;;;11.77;7.43;;;;;;;4.30;100.00;99281.31;4931815;29;20455;-80
2023/01/09 00:35:15;;;;;;;13.17;6.67;;;;;;;4.18;100.00;99278.91;4903948;29;20476;-80
2023/01/09 00:37:42;;;;;;;13.17;8.00;;;;;;;4.11;100.00;99258.97;4923739;29;20045;-81
2023/01/09 00:40:09;;;;;;;13.77;9.10;;;;;;;4.13;100.00;99271.16;4928008;29;20050;-81
2023/01/09 00:42:39;;;;;;;15.43;8.17;;;;;;;4.07;100.00;99270.38;4910885;29;20428;-81
2023/01/09 00:45:09;;;;;;;11.43;7.07;;;;;;;4.01;100.00;99268.72;4897801;29;20056;-81
2023/01/09 00:47:39;;;;;;;14.57;8.23;;;;;;;3.99;100.00;99260.06;4939889;29;20050;-81
2023/01/09 00:50:14;;;;;;;10.07;7.60;;;;;;;3.90;100.00;99249.75;4908395;29;20804;-80
2023/01/09 00:52:41;;;;;;;13.07;8.00;;;;;;;3.89;100.00;99259.34;4941334;29;20047;-81
2023/01/09 00:55:08;;;;;;;12.97;8.50;;;;;;;3.83;100.00;99253.34;4906337;29;20048;-80
2023/01/09 00:57:35;;;;;;;12.27;7.70;;;;;;;3.81;100.00;99249.91;4908856;29;20491;-82
2023/01/09 01:00:03;;;;;;;14.70;8.43;;;;;;;3.91;100.00;99256.69;4939876;29;20051;-81
2023/01/09 01:02:29;;;;;;;12.07;7.37;;;;;;;3.85;100.00;99267.25;4919234;29;20523;-80
2023/01/09 01:07:42;;;;;;;14.33;8.23;;;;;;;3.78;100.00;99261.25;4916362;29;20052;-80
2023/01/09 01:10:15;;;;;;;13.33;8.40;;;;;;;3.67;100.00;99266.63;4910901;29;20509;-80
2023/01/09 01:12:45;;;;;;;12.90;7.17;;;;;;;3.76;100.00;99264.78;4912736;29;20410;-81
2023/01/09 01:15:13;;;;;;;13.80;7.97;;;;;;;3.70;100.00;99257.03;4932928;29;20051;-80
2023/01/09 01:17:40;;;;;;;14.30;8.43;;;;;;;3.67;100.00;99260.56;4923712;29;20143;-81
2023/01/09 01:20:10;;;;;;;16.57;7.60;;;;;;;3.78;100.00;99260.38;4914094;29;20067;-81
2023/01/09 01:22:37;;;;;;;15.90;9.27;;;;;;;3.84;100.00;99258.53;4920587;29;20045;-80
2023/01/09 01:25:04;;;;;;;15.17;8.77;;;;;;;3.73;100.00;99255.25;4918433;29;20051;-81
2023/01/09 01:27:31;;;;;;;15.63;8.67;;;;;;;3.71;100.00;99246.56;4918692;29;20232;-80
2023/01/09 01:30:00;;;;;;;15.83;8.70;;;;;;;3.76;100.00;99252.56;4914436;29;20048;-80
2023/01/09 01:32:27;;;;;;;14.50;8.83;;;;;;;3.76;100.00;99242.13;4920468;29;20414;-81
2023/01/09 01:34:53;;;;;;;17.30;9.90;;;;;;;3.80;100.00;99249.03;4944488;29;20050;-80
2023/01/09 01:37:21;;;;;;;15.60;9.20;;;;;;;3.73;100.00;99243.94;4909652;29;20431;-81
2023/01/09 01:39:51;;;;;;;15.17;9.17;;;;;;;3.60;100.00;99232.81;4923912;29;20052;-82
2023/01/09 01:42:18;;;;;;;13.87;8.50;;;;;;;3.61;100.00;99226.69;4926685;29;20037;-81
2023/01/09 01:44:58;;;;;;;13.97;9.33;;;;;;;3.61;100.00;99217.09;4911173;29;20041;-81
2023/01/09 01:47:37;;;;;;;13.60;8.70;;;;;;;3.53;100.00;99215.50;4946536;29;20135;-81
2023/01/09 01:50:15;;;;;;;15.47;8.43;;;;;;;3.48;100.00;99222.56;4933704;29;20131;-80
2023/01/09 01:52:44;;;;;;;17.10;9.07;;;;;;;3.45;100.00;99220.84;4947669;29;20040;-80
2023/01/09 01:55:11;;;;;;;19.27;10.07;;;;;;;3.53;100.00;99216.38;4926343;29;20049;-80
2023/01/09 01:57:41;;;;;;;17.43;10.33;;;;;;;3.51;100.00;99214.66;4934347;29;20095;-81
2023/01/09 02:00:11;;;;;;;17.50;10.37;;;;;;;3.48;100.00;99212.97;4939890;29;20043;-80
2023/01/09 02:02:42;;;;;;;19.03;9.70;;;;;;;3.43;100.00;99213.91;4919381;29;20042;-80
2023/01/09 02:05:12;;;;;;;16.70;10.33;;;;;;;3.42;100.00;99206.97;4935096;29;20050;-80
2023/01/09 02:07:38;;;;;;;15.83;8.93;;;;;;;3.27;100.00;99216.75;4930868;29;20067;-81
2023/01/09 02:10:05;;;;;;;18.67;10.50;;;;;;;3.29;100.00;99204.56;4912668;29;20087;-81
2023/01/09 02:12:32;;;;;;;16.37;9.77;;;;;;;3.36;100.00;99203.59;4906917;29;20051;-80
2023/01/09 02:15:08;;;;;;;17.97;10.93;;;;;;;3.30;100.00;99205.41;4949661;29;20096;-80
2023/01/09 02:17:52;;;;;;;15.83;9.57;;;;;;;3.23;100.00;99198.56;4928640;29;20044;-79
2023/01/09 02:20:39;;;;;;;16.30;9.50;;;;;;;3.19;100.00;99202.06;4945784;29;20047;-81
2023/01/09 02:23:30;;;;;;;18.47;10.23;;;;;;;3.15;100.00;99196.03;4906377;29;20139;-81
2023/01/09 02:26:16;;;;;;;19.53;10.43;;;;;;;3.08;100.00;99197.00;4916591;29;20048;-81
2023/01/09 02:29:03;;;;;;;14.97;9.13;;;;;;;3.06;100.00;99190.97;4935282;29;20496;-81
2023/01/09 02:31:51;;;;;;;16.13;9.83;;;;;;;3.00;100.00;99196.25;4901310;29;20085;-80
2023/01/09 02:34:20;;;;;;;15.77;9.63;;;;;;;2.92;100.00;99192.88;4918681;29;20131;-80
2023/01/09 02:36:58;;;;;;;16.27;9.43;;;;;;;2.86;100.00;99193.84;4943367;29;20048;-80
2023/01/09 02:39:26;;;;;;;17.20;10.37;;;;;;;2.83;100.00;99186.03;4940267;29;20523;-79
2023/01/09 02:42:04;;;;;;;18.77;10.47;;;;;;;2.86;100.00;99187.72;4943692;29;20036;-81
2023/01/09 02:44:33;;;;;;;17.13;9.93;;;;;;;2.72;100.00;99186.19;4931541;29;20024;-81
2023/01/09 02:47:15;;;;;;;17.93;10.37;;;;;;;2.78;100.00;99186.13;4942790;29;20119;-81
2023/01/09 02:49:51;;;;;;;19.90;10.60;;;;;;;2.86;100.00;99177.31;4921300;29;20043;-82
2023/01/09 02:52:46;;;;;;;20.63;10.90;;;;;;;2.76;100.00;99179.16;4937817;29;20043;-83
2023/01/09 02:55:26;;;;;;;20.13;10.93;;;;;;;2.82;100.00;99169.53;4921539;29;20040;-83
2023/01/09 02:58:06;;;;;;;17.63;9.93;;;;;;;2.73;100.00;99176.63;4939904;29;20055;-83
2023/01/09 03:00:52;;;;;;;17.47;10.47;;;;;;;2.78;100.00;99170.47;4938639;28;20071;-82
2023/01/09 03:03:37;;;;;;;17.70;10.33;;;;;;;2.80;100.00;99168.69;4900943;29;20040;-81
2023/01/09 03:06:14;;;;;;;16.20;9.70;;;;;;;2.73;100.00;99171.41;4925126;29;20716;-82
2023/01/09 03:08:47;;;;;;;21.90;10.90;;;;;;;2.78;100.00;99173.06;4918593;29;20036;-81
2023/01/09 03:11:14;;;;;;;18.85;9.50;;;;;;;2.66;100.00;99162.78;4906798;29;20051;-82
2023/01/09 03:13:51;;;;;;;16.60;10.43;;;;;;;2.68;100.00;99163.63;4916416;29;20051;-82
2023/01/09 03:16:24;;;;;;;16.43;10.17;;;;;;;2.56;100.00;99163.78;4941986;29;20048;-81
2023/01/09 03:18:52;;;;;;;17.77;10.15;;;;;;;2.66;100.00;99174.97;4900712;29;20047;-81
2023/01/09 03:21:19;;;;;;;17.80;10.63;;;;;;;2.54;100.00;99175.97;4899943;29;20040;-83
2023/01/09 03:23:57;;;;;;;17.90;10.20;;;;;;;2.40;100.00;99177.88;4919613;29;20052;-82
2023/01/09 03:26:25;;;;;;;19.20;10.40;;;;;;;2.44;100.00;99172.63;4924510;29;20111;-83
2023/01/09 03:28:52;;;;;;;16.20;9.93;;;;;;;2.44;100.00;99183.06;4926986;29;20040;-83
2023/01/09 03:31:18;;;;;;;17.53;9.97;;;;;;;2.39;100.00;99187.44;4906625;29;20040;-84
2023/01/09 03:33:45;;;;;;;19.17;9.90;;;;;;;2.46;100.00;99178.66;4923637;29;20046;-83
2023/01/09 03:36:13;;;;;;;21.93;11.30;;;;;;;2.54;100.00;99170.75;4908567;29;20047;-83
2023/01/09 03:38:39;;;;;;;18.50;10.67;;;;;;;2.53;100.00;99174.25;4919789;29;20054;-84
2023/01/09 03:41:07;;;;;;;18.67;10.43;;;;;;;2.41;100.00;99170.03;4917552;29;20623;-83
2023/01/09 03:43:33;;;;;;;20.33;11.63;;;;;;;2.46;100.00;99173.47;4927523;29;20044;-82
2023/01/09 03:46:00;;;;;;;22.00;11.27;;;;;;;2.53;100.00;99176.88;4920053;29;20036;-81
2023/01/09 03:48:27;;;;;;;17.97;11.20;;;;;;;2.50;100.00;99179.50;4918270;29;20051;-83
2023/01/09 03:50:54;;;;;;;19.13;10.90;;;;;;;2.43;100.00;99172.63;4926834;29;21442;-83
2023/01/09 03:53:23;;;;;;;18.37;10.43;;;;;;;2.46;100.00;99170.00;4916227;29;20103;-85
2023/01/09 03:55:51;;;;;;;19.87;11.13;;;;;;;2.38;100.00;99161.41;4878671;29;20060;-83
2023/01/09 03:58:19;;;;;;;20.07;11.00;;;;;;;2.30;100.00;99174.50;4897865;29;20048;-82
2023/01/09 04:00:47;;;;;;;18.07;11.27;;;;;;;2.39;100.00;99168.34;4919689;29;20040;-81
2023/01/09 04:03:16;;;;;;;19.37;10.33;;;;;;;2.35;100.00;99158.81;4918222;29;20036;-83
2023/01/09 04:05:44;;;;;;;17.80;10.73;;;;;;;2.33;100.00;99169.25;4918740;29;20530;-83
2023/01/09 04:08:11;;;;;;;17.40;9.97;;;;;;;2.32;100.00;99161.47;4921119;29;20507;-84
2023/01/09 04:10:37;;;;;;;18.03;10.50;;;;;;;2.41;100.00;99153.53;4916851;29;20506;-83
2023/01/09 04:13:04;;;;;;;17.67;9.97;;;;;;;2.31;100.00;99158.00;4898194;29;20072;-83
2023/01/09 04:15:31;;;;;;;18.60;10.03;;;;;;;2.35;100.00;99151.00;4929943;29;20044;-82
2023/01/09 04:17:57;;;;;;;18.17;9.80;;;;;;;2.26;100.00;99149.34;4909636;29;20452;-83
2023/01/09 04:20:24;;;;;;;17.07;9.53;;;;;;;2.40;100.00;99144.84;4931826;29;20048;-85
2023/01/09 04:22:51;;;;;;;17.57;10.70;;;;;;;2.22;100.00;99139.84;4909807;29;20054;-82
2023/01/09 04:25:17;;;;;;;16.87;9.47;;;;;;;2.17;100.00;99141.63;4887949;29;20048;-83
2023/01/09 04:27:44;;;;;;;18.37;9.73;;;;;;;2.12;100.00;99139.09;4940775;29;20051;-81
2023/01/09 04:30:11;;;;;;;15.33;9.27;;;;;;;2.10;100.00;99134.75;4914733;29;20032;-82
2023/01/09 04:32:37;;;;;;;15.17;8.73;;;;;;;2.19;100.00;99127.75;4934314;29;20048;-82
2023/01/09 04:35:06;;;;;;;14.37;9.30;;;;;;;2.16;100.00;99124.28;4936867;29;20051;-82
2023/01/09 04:37:35;;;;;;;13.63;9.00;;;;;;;2.39;100.00;99117.06;4920524;29;20040;-81
2023/01/09 04:40:07;;;;;;;18.17;9.30;;;;;;;2.33;100.00;99114.53;4955792;29;20038;-83
2023/01/09 04:42:34;;;;;;;19.87;10.90;;;;;;;2.30;100.00;99124.13;4953593;29;20130;-82
2023/01/09 04:45:00;;;;;;;18.37;9.83;;;;;;;2.47;100.00;99115.22;4920115;29;20044;-82
2023/01/09 04:47:29;;;;;;;21.27;10.83;;;;;;;2.41;100.00;99101.41;4920504;29;20044;-82
2023/01/09 04:49:56;;;;;;;17.73;9.67;;;;;;;2.38;100.00;99106.66;4941883;29;20043;-82
2023/01/09 04:52:23;;;;;;;21.43;10.67;;;;;;;2.47;100.00;99109.16;4941190;29;20095;-82
2023/01/09 04:54:49;;;;;;;15.00;9.27;;;;;;;2.49;100.00;99104.78;4940305;29;20069;-83
2023/01/09 04:57:16;;;;;;;17.47;9.83;;;;;;;2.59;100.00;99085.53;4924553;29;20040;-82
2023/01/09 04:59:43;;;;;;;22.27;11.43;;;;;;;2.48;100.00;99096.09;4889239;29;20056;-82
2023/01/09 05:02:10;;;;;;;16.70;10.73;;;;;;;2.49;100.00;99100.44;4913170;29;20044;-82
2023/01/09 05:04:37;;;;;;;19.53;10.97;;;;;;;2.66;100.00;99092.38;4926783;29;20067;-80
2023/01/09 05:07:04;;;;;;;21.00;11.43;;;;;;;2.66;100.00;99086.31;4923935;29;20096;-82
2023/01/09 05:09:30;;;;;;;19.27;12.17;;;;;;;2.62;100.00;99082.91;4907972;29;20065;-82
2023/01/09 05:11:57;;;;;;;21.13;11.43;;;;;;;2.68;100.00;99082.78;4920476;29;20063;-82
2023/01/09 05:14:25;;;;;;;21.53;10.97;;;;;;;2.71;100.00;99079.28;4915550;29;20082;-82
2023/01/09 05:16:51;;;;;;;18.60;10.00;;;;;;;2.67;100.00;99075.84;4944429;29;20072;-82
2023/01/09 05:19:18;;;;;;;22.40;11.57;;;;;;;2.65;100.00;99067.19;4944302;29;20050;-82
2023/01/09 05:21:45;;;;;;;19.90;10.60;;;;;;;2.71;100.00;99067.13;4931319;29;20072;-82
2023/01/09 05:24:11;;;;;;;21.80;12.70;;;;;;;2.71;100.00;99061.03;4934606;29;20051;-82
2023/01/09 05:26:38;;;;;;;22.00;12.27;;;;;;;2.73;100.00;99064.47;4920460;29;20052;-83
2023/01/09 05:29:05;;;;;;;25.43;14.43;;;;;;;2.88;100.00;99066.00;4923302;29;20107;-82
2023/01/09 05:31:31;;;;;;;24.03;12.50;;;;;;;2.82;100.00;99064.34;4904351;29;20052;-82
2023/01/09 05:33:59;;;;;;;24.83;14.40;;;;;;;2.86;100.00;99062.53;4940921;29;20066;-81
2023/01/09 05:36:27;;;;;;;25.50;14.40;;;;;;;2.85;100.00;99053.84;4921845;29;20056;-82
2023/01/09 05:38:53;;;;;;;22.43;12.83;;;;;;;2.96;100.00;99065.00;4925971;29;20036;-81
2023/01/09 05:41:20;;;;;;;23.77;13.80;;;;;;;3.04;100.00;99057.06;4937802;29;20048;-83
2023/01/09 05:43:49;;;;;;;24.67;12.63;;;;;;;3.03;100.00;99055.34;4946450;29;20043;-82
2023/01/09 05:46:16;;;;;;;24.97;13.93;;;;;;;3.12;100.00;99052.59;4925301;29;20056;-81
2023/01/09 05:48:43;;;;;;;26.43;13.67;;;;;;;3.15;100.00;99055.13;4928623;29;20036;-82
2023/01/09 05:51:11;;;;;;;25.37;13.57;;;;;;;3.18;100.00;99049.84;4938917;29;20063;-82
2023/01/09 05:53:38;;;;;;;26.20;14.97;;;;;;;3.22;100.00;99048.06;4924255;29;20058;-82
2023/01/09 05:56:04;;;;;;;29.73;15.20;;;;;;;3.19;100.00;99043.75;4922323;29;20058;-83
2023/01/09 05:58:31;;;;;;;29.30;15.30;;;;;;;3.26;100.00;99044.50;4966305;29;20044;-82
2023/01/09 06:00:58;;;;;;;28.30;16.47;;;;;;;3.32;100.00;99050.50;4942075;29;20821;-82
2023/01/09 06:03:25;;;;;;;29.67;15.87;;;;;;;3.27;100.00;99049.69;4939354;29;20043;-82
2023/01/09 06:05:51;;;;;;;30.10;16.70;;;;;;;3.27;100.00;99054.06;4918769;29;20044;-82
2023/01/09 06:08:18;;;;;;;27.20;15.27;;;;;;;3.33;100.00;99043.53;4932519;29;20040;-82
2023/01/09 06:10:45;;;;;;;25.47;15.03;;;;;;;3.41;100.00;99041.66;4929639;29;20043;-82
2023/01/09 06:13:13;;;;;;;26.07;14.60;;;;;;;3.35;100.00;99047.81;4945164;29;20102;-82
2023/01/09 06:15:39;;;;;;;25.70;14.30;;;;;;;3.45;100.00;99050.28;4939752;29;20043;-83
2023/01/09 06:18:06;;;;;;;25.50;14.00;;;;;;;3.44;100.00;99044.19;4935441;29;20065;-82
2023/01/09 06:20:33;;;;;;;28.87;16.07;;;;;;;3.52;100.00;99037.09;4939565;29;20037;-81
2023/01/09 06:23:00;;;;;;;30.23;16.80;;;;;;;3.61;100.00;99046.50;4942368;29;20043;-82
2023/01/09 06:25:26;;;;;;;26.73;14.33;;;;;;;3.64;100.00;99041.25;4916152;29;20052;-81
2023/01/09 06:27:53;;;;;;;27.83;15.40;;;;;;;3.64;100.00;99033.41;4937792;29;20048;-82
2023/01/09 06:30:20;;;;;;;25.60;14.70;;;;;;;3.57;100.00;99044.84;4933948;29;20122;-81
2023/01/09 06:32:48;;;;;;;25.03;14.57;;;;;;;3.73;100.00;99038.47;4913048;29;20055;-81
2023/01/09 06:35:19;;;;;;;26.33;14.87;;;;;;;3.78;100.00;99039.22;4932217;29;20050;-82
2023/01/09 06:37:46;;;;;;;27.17;14.53;;;;;;;3.82;100.00;99034.81;4926644;29;20135;-82
2023/01/09 06:40:13;;;;;;;27.67;14.97;;;;;;;3.72;100.00;99035.88;4930317;29;20514;-82
2023/01/09 06:42:44;;;;;;;24.83;13.73;;;;;;;3.77;100.00;99044.47;4922944;29;20039;-81
2023/01/09 06:45:11;;;;;;;28.87;16.43;;;;;;;3.84;100.00;99036.50;4930482;29;20051;-81
2023/01/09 06:47:39;;;;;;;26.00;14.83;;;;;;;3.83;100.00;99040.00;4928731;29;20047;-81
2023/01/09 06:50:06;;;;;;;25.83;13.47;;;;;;;3.71;100.00;99042.00;4909172;29;20099;-80
2023/01/09 06:52:33;;;;;;;27.07;16.00;;;;;;;3.74;100.00;99039.31;4904767;29;20088;-82
2023/01/09 06:54:59;;;;;;;26.27;15.67;;;;;;;3.76;100.00;99040.13;4911957;29;20418;-81
2023/01/09 06:57:26;;;;;;;29.07;13.73;;;;;;;3.77;100.00;99044.47;4923147;29;20041;-81
2023/01/09 06:59:53;;;;;;;26.53;15.00;;;;;;;3.72;100.00;99043.72;4923636;29;20040;-80
2023/01/09 07:02:20;;;;;;;25.07;14.20;;;;;;;3.80;100.00;99040.06;4906471;29;20080;-81
2023/01/09 07:04:47;;;;;;;28.13;14.77;;;;;;;3.83;100.00;99044.38;4889137;29;20070;-81
2023/01/09 07:07:14;;;;;;;25.60;15.00;;;;;;;3.87;100.00;99027.75;4912653;29;20078;-81
2023/01/09 07:09:41;;;;;;;28.80;16.33;;;;;;;3.93;100.00;99025.00;4924477;29;20046;-80
2023/01/09 07:12:08;;;;;;;27.97;14.03;;;;;;;3.97;100.00;99026.69;4919639;29;20066;-81
2023/01/09 07:14:35;;;;;;;26.60;14.23;;;;;;;3.98;100.00;99032.75;5006766;23;20058;-85
2023/01/09 07:17:02;;;;;;;26.43;14.47;;;;;;;4.05;100.00;99026.53;4929651;29;20079;-87
2023/01/09 07:19:29;;;;;;;28.40;15.73;;;;;;;4.01;100.00;99027.47;4919238;29;20498;-85
2023/01/09 07:21:56;;;;;;;25.20;14.60;;;;;;;3.96;100.00;99024.97;4916261;29;20067;-86
2023/01/09 07:24:22;;;;;;;26.70;15.23;;;;;;;3.96;100.00;99027.56;4929923;29;20095;-86
2023/01/09 07:26:49;;;;;;;27.57;16.43;;;;;;;4.03;100.00;99029.16;4885817;29;20064;-85
2023/01/09 07:29:16;;;;;;;25.10;14.27;;;;;;;4.05;100.00;99023.91;4909235;29;20483;-88
2023/01/09 07:31:42;;;;;;;25.60;15.57;;;;;;;4.05;100.00;99023.91;4901004;29;20139;-86
2023/01/09 07:34:09;;;;;;;26.33;14.27;;;;;;;4.02;100.00;99023.97;4904392;29;20058;-85
2023/01/09 07:36:36;;;;;;;26.20;14.13;;;;;;;4.01;100.00;99024.84;4919753;29;20051;-86
2023/01/09 07:39:02;;;;;;;28.20;14.83;;;;;;;4.19;100.00;99021.84;4919799;29;20048;-86
2023/01/09 07:41:29;;;;;;;29.07;15.83;;;;;;;4.13;100.00;99016.78;4903328;29;20119;-85
2023/01/09 07:43:56;;;;;;;26.03;15.27;;;;;;;4.12;100.00;99004.56;4901229;29;20056;-86
2023/01/09 07:46:22;;;;;;;23.87;14.03;;;;;;;4.04;100.00;99012.59;4907999;29;20052;-86
2023/01/09 07:48:49;;;;;;;25.47;14.67;;;;;;;4.10;100.00;99011.59;4902778;29;20082;-85
2023/01/09 07:51:16;;;;;;;22.67;13.97;;;;;;;4.07;100.00;99016.91;4915489;29;20499;-86
2023/01/09 07:53:42;;;;;;;27.17;14.83;;;;;;;4.13;100.00;99012.41;4915110;29;20048;-87
2023/01/09 07:56:09;;;;;;;27.23;14.47;;;;;;;4.22;100.00;99016.59;4899857;29;20048;-84
2023/01/09 07:58:37;;;;;;;27.57;14.70;;;;;;;4.15;100.00;99015.00;4918088;29;20044;-86
2023/01/09 08:01:04;;;;;;;26.93;14.57;;;;;;;4.16;100.00;99011.47;4934485;29;20039;-86
2023/01/09 08:03:32;;;;;;;30.80;14.77;;;;;;;4.14;100.00;99016.75;4888560;29;20103;-86
2023/01/09 08:05:59;;;;;;;29.23;15.43;;;;;;;4.19;100.00;99014.00;4949280;28;20054;-86
2023/01/09 08:08:26;;;;;;;26.43;15.10;;;;;;;4.22;100.00;99014.81;4933766;29;20134;-86
2023/01/09 08:10:53;;;;;;;25.83;15.63;;;;;;;4.22;100.00;99011.34;4917877;29;20091;-86
2023/01/09 08:13:20;;;;;;;27.53;15.60;;;;;;;4.27;100.00;99017.31;4933479;29;20095;-87
2023/01/09 08:15:46;;;;;;;29.90;16.67;;;;;;;4.30;100.00;99026.88;4905694;29;20440;-85
2023/01/09 08:18:13;;;;;;;23.67;13.80;;;;;;;4.24;100.00;99023.50;4881352;29;20080;-87
2023/01/09 08:20:39;;;;;;;26.77;14.90;;;;;;;4.30;100.00;99032.09;4911495;29;20041;-85
2023/01/09 08:23:06;;;;;;;27.67;15.27;;;;;;;4.34;100.00;99032.00;4896026;29;20500;-86
2023/01/09 08:25:33;;;;;;;28.57;15.03;;;;;;;4.34;100.00;99042.44;4881000;29;20048;-85
2023/01/09 08:27:59;;;;;;;26.70;14.17;;;;;;;4.40;100.00;99046.69;4904848;29;20051;-86
2023/01/09 08:30:26;;;;;;;29.47;14.63;;;;;;;4.36;100.00;99042.41;4933989;29;20039;-86
2023/01/09 08:32:53;;;;;;;27.90;15.33;;;;;;;4.48;100.00;99056.09;4918056;29;20039;-86
2023/01/09 08:35:20;;;;;;;25.87;14.83;;;;;;;4.53;100.00;99042.91;4918487;29;20094;-85
2023/01/09 08:37:47;;;;;;;25.97;14.17;;;;;;;4.55;100.00;99038.53;4918183;29;20044;-85
2023/01/09 08:40:15;;;;;;;23.87;14.00;;;;;;;4.44;100.00;99038.75;4918062;29;20511;-87
2023/01/09 08:48:12;;;;;;;23.90;13.30;;;;;;;4.53;100.00;99041.16;4933761;29;20047;-86
2023/01/09 08:50:39;;;;;;;27.37;14.53;;;;;;;4.58;100.00;99045.44;4898925;29;20120;-85
2023/01/09 08:53:06;;;;;;;26.00;15.07;;;;;;;4.52;100.00;99044.66;4914030;29;20048;-86
2023/01/09 08:55:32;;;;;;;23.20;13.17;;;;;;;4.53;100.00;99045.53;4898928;29;20055;-86
2023/01/09 08:57:59;;;;;;;25.77;14.53;;;;;;;4.53;100.00;99045.53;4913739;29;20047;-86
2023/01/09 09:00:26;;;;;;;24.47;14.20;;;;;;;4.65;100.00;99041.78;4891881;29;20048;-86
2023/01/09 09:02:54;;;;;;;23.73;12.87;;;;;;;4.73;100.00;99047.72;4927690;29;20056;-86
2023/01/09 09:05:22;;;;;;;26.03;13.40;;;;;;;4.75;100.00;99038.06;4900372;29;20047;-86
2023/01/09 09:07:49;;;;;;;28.07;13.50;;;;;;;4.78;100.00;99046.69;4910457;29;20058;-85
2023/01/09 09:10:16;;;;;;;23.87;12.97;;;;;;;4.67;100.00;99043.47;4917474;29;20439;-85
2023/01/09 09:12:43;;;;;;;20.17;12.20;;;;;;;4.64;100.00;99050.53;4925537;29;20046;-86
2023/01/09 09:15:22;;;;;;;23.53;13.30;;;;;;;4.65;100.00;99058.34;4932694;29;20047;-85
2023/01/09 09:17:57;;;;;;;20.13;12.37;;;;;;;4.62;100.00;99054.91;4916883;29;20522;-86
2023/01/09 09:20:26;;;;;;;22.77;12.70;;;;;;;4.61;100.00;99058.44;4932490;29;20040;-86
2023/01/09 09:22:53;;;;;;;19.77;12.03;;;;;;;4.63;100.00;99061.91;4932229;29;20044;-86
2023/01/09 09:25:20;;;;;;;20.00;12.53;;;;;;;4.68;100.00;99063.50;4893297;29;20083;-86
2023/01/09 09:27:48;;;;;;;21.13;12.40;;;;;;;4.69;100.00;99062.59;4914977;29;20043;-85
2023/01/09 09:30:16;;;;;;;24.77;13.40;;;;;;;4.69;100.00;99061.75;4925344;29;20059;-85
2023/01/09 09:32:42;;;;;;;24.63;14.17;;;;;;;4.94;100.00;99069.91;4921290;29;20389;-85
2023/01/09 09:35:09;;;;;;;22.33;14.03;;;;;;;4.87;100.00;99073.53;4914386;29;20044;-84
2023/01/09 09:37:36;;;;;;;23.47;14.67;;;;;;;4.80;100.00;99067.63;4917411;29;20426;-84
2023/01/09 09:40:03;;;;;;;25.97;13.70;;;;;;;4.78;100.00;99061.53;4916861;29;20066;-85
2023/01/09 09:46:12;;;;;;;27.40;14.23;;;;;;;4.96;100.00;99057.63;4917720;29;20127;-85
2023/01/09 09:48:50;;;;;;;26.70;14.23;;;;;;;4.89;100.00;99048.22;4903474;29;20426;-85
2023/01/09 09:51:29;;;;;;;29.10;14.67;;;;;;;4.93;100.00;99053.34;4913544;29;20037;-86
2023/01/09 09:54:03;;;;;;;22.67;13.90;;;;;;;4.98;100.00;99051.50;4913965;29;20044;-85
2023/01/09 09:56:34;;;;;;;25.30;15.80;;;;;;;5.06;100.00;99062.63;4896961;29;20431;-86
2023/01/09 09:59:04;;;;;;;23.03;14.57;;;;;;;5.04;100.00;99063.53;4903674;29;20047;-85
2023/01/09 10:01:40;;;;;;;24.63;14.07;;;;;;;5.13;100.00;99063.34;4904254;29;20044;-85
2023/01/09 10:04:11;;;;;;;24.40;14.13;;;;;;;5.19;100.00;99063.19;4914904;29;20466;-86
2023/01/09 10:06:50;;;;;;;24.87;14.03;;;;;;;5.16;100.00;99070.25;4912318;29;20411;-85
2023/01/09 10:09:44;;;;;;;24.93;13.63;;;;;;;5.19;100.00;99062.31;4906723;29;20043;-85
2023/01/09 10:12:26;;;;;;;21.15;13.57;;;;;;;5.17;100.00;99058.91;4897134;29;20044;-85
2023/01/09 10:15:05;;;;;;;23.87;13.67;;;;;;;5.25;100.00;99064.81;4940369;28;20534;-85
2023/01/09 10:17:43;;;;;;;21.20;13.43;;;;;;;5.20;100.00;99061.44;4942033;29;20051;-85
2023/01/09 10:20:15;;;;;;;23.90;13.60;;;;;;;5.18;100.00;99069.31;4932340;29;20032;-85
2023/01/09 10:22:57;;;;;;;25.77;15.00;;;;;;;5.18;100.00;99066.72;4912621;29;20044;-86
2023/01/09 10:25:30;;;;;;;22.90;13.60;;;;;;;5.29;100.00;99072.53;4918472;29;20048;-86
2023/01/09 10:28:24;;;;;;;24.30;14.53;;;;;;;5.28;100.00;99060.34;4937247;29;20094;-85
2023/01/09 10:31:07;;;;;;;24.77;14.60;;;;;;;5.34;100.00;99064.56;4916318;29;20047;-85
2023/01/09 10:34:05;;;;;;;27.43;13.90;;;;;;;5.39;100.00;99069.72;4903356;29;20044;-85
2023/01/09 10:37:03;;;;;;;25.10;14.33;;;;;;;5.36;100.00;99073.25;4914415;29;20581;-85
2023/01/09 10:39:43;;;;;;;26.57;13.40;;;;;;;5.40;100.00;99067.06;4903092;29;20104;-85
2023/01/09 10:42:17;;;;;;;25.83;15.33;;;;;;;5.53;100.00;99070.22;4899749;29;20522;-85
2023/01/09 10:44:58;;;;;;;26.00;12.95;;;;;;;5.53;100.00;99067.59;4921419;29;20039;-85
2023/01/09 10:47:33;;;;;;;25.20;14.13;;;;;;;5.62;100.00;99064.72;4925977;29;20104;-84
2023/01/09 10:50:13;;;;;;;22.90;13.87;;;;;;;5.69;100.00;99073.28;4905904;29;20135;-88
2023/01/09 10:52:40;;;;;;;22.77;13.33;;;;;;;5.82;100.00;99070.31;4936631;29;20545;-86
2023/01/09 10:55:49;;;;;;;22.93;13.97;;;;;;;5.89;100.00;99076.28;4911544;29;20071;-85
2023/01/09 10:58:17;;;;;;;23.87;12.77;;;;;;;6.05;100.00;99080.19;4912220;29;20052;-85
2023/01/09 11:00:45;;;;;;;23.60;14.60;;;;;;;6.07;100.00;99075.78;4916809;29;20044;-85
2023/01/09 11:03:13;;;;;;;25.10;14.93;;;;;;;6.05;100.00;99082.81;4929191;29;20542;-88
2023/01/09 11:05:40;;;;;;;22.73;14.63;;;;;;;6.11;100.00;99082.66;4900819;29;20522;-84
2023/01/09 11:08:07;;;;;;;22.30;12.50;;;;;;;6.17;100.00;99089.50;4885806;29;20044;-85
2023/01/09 11:10:51;;;;;;;22.03;13.50;;;;;;;6.22;100.00;99092.84;4902170;29;20057;-88
2023/01/09 11:13:19;;;;;;;19.52;12.40;;;;;;;6.11;100.00;99085.28;4908676;29;20149;-84
2023/01/09 11:16:06;;;;;;;20.20;12.27;;;;;;;6.20;100.00;99082.41;4906671;29;20412;-84
2023/01/09 11:18:37;;;;;;;20.83;13.23;;;;;;;6.17;100.00;99087.75;4907890;29;20070;-85
2023/01/09 11:21:25;;;;;;;20.07;12.93;;;;;;;6.23;100.00;99083.25;4916999;29;20044;-84
2023/01/09 11:23:52;;;;;;;21.13;13.27;;;;;;;6.20;100.00;99092.88;4903706;29;20043;-85
2023/01/09 11:26:25;;;;;;;19.63;12.47;;;;;;;6.16;100.00;99093.03;4912212;29;20051;-85
2023/01/09 11:29:06;;;;;;;20.17;13.53;;;;;;;6.07;100.00;99104.63;4902817;29;20079;-85
2023/01/09 11:31:33;;;;;;;19.37;12.07;;;;;;;6.04;100.00;99107.31;4914567;29;20040;-84
2023/01/09 11:33:59;;;;;;;16.90;11.20;;;;;;;6.13;100.00;99120.19;4923784;29;20052;-84
2023/01/09 11:36:27;;;;;;;23.17;13.90;;;;;;;6.15;100.00;99117.53;4922123;29;20043;-86
2023/01/09 11:38:58;;;;;;;18.73;12.93;;;;;;;6.06;100.00;99112.53;4885498;29;20052;-85
2023/01/09 11:41:28;;;;;;;20.87;12.27;;;;;;;6.12;100.00;99118.47;4900711;29;20051;-85
2023/01/09 11:43:57;;;;;;;22.53;12.33;;;;;;;6.25;100.00;99112.91;4905532;29;20050;-86